createdAt,value
2023-03-02T00:02:02.103Z,20.40
2023-03-02T00:04:46.365Z,18.13
2023-03-02T00:07:16.419Z,21.25
2023-03-02T00:09:44.520Z,19.48
2023-03-02T00:12:11.331Z,15.27
2023-03-02T00:14:40.816Z,18.58
2023-03-02T00:17:07.988Z,17.48
2023-03-02T00:19:34.566Z,18.83
2023-03-02T00:22:01.048Z,17.13
2023-03-02T00:24:27.575Z,17.75
2023-03-02T00:26:54.077Z,17.25
2023-03-02T00:29:20.585Z,20.83
2023-03-02T00:31:47.140Z,18.45
2023-03-02T00:34:14.738Z,21.27
2023-03-02T00:36:41.514Z,19.30
2023-03-02T00:39:08.217Z,21.48
2023-03-02T00:41:34.931Z,21.20
2023-03-02T00:44:01.509Z,17.35
2023-03-02T00:46:28.780Z,18.23
2023-03-02T00:48:55.467Z,24.80
2023-03-02T00:51:21.985Z,19.70
2023-03-02T00:53:48.751Z,19.38
2023-03-02T00:56:15.368Z,22.45
2023-03-02T00:58:47.340Z,22.75
2023-03-02T01:01:15.445Z,19.50
2023-03-02T01:03:46.408Z,20.77
2023-03-02T01:06:17.443Z,20.50
2023-03-02T01:08:44.205Z,20.70
2023-03-02T01:11:13.673Z,20.08
2023-03-02T01:13:40.872Z,19.38
2023-03-02T01:16:07.978Z,21.40
2023-03-02T01:18:35.970Z,21.27
2023-03-02T01:21:08.499Z,19.90
2023-03-02T01:23:35.593Z,15.10
2023-03-02T01:26:02.872Z,17.87
2023-03-02T01:28:29.336Z,14.90
2023-03-02T01:30:56.029Z,23.23
2023-03-02T01:33:22.895Z,20.73
2023-03-02T01:35:49.532Z,19.88
2023-03-02T01:38:16.188Z,18.90
2023-03-02T01:40:43.223Z,19.95
2023-03-02T01:43:17.090Z,14.57
2023-03-02T01:46:03.806Z,17.13
2023-03-02T01:48:46.783Z,15.05
2023-03-02T01:51:19.242Z,20.27
2023-03-02T01:53:50.458Z,22.37
2023-03-02T01:56:20.206Z,21.88
2023-03-02T01:58:48.836Z,18.63
2023-03-02T02:01:15.940Z,17.27
2023-03-02T02:03:44.705Z,17.10
2023-03-02T02:06:18.114Z,18.92
2023-03-02T02:08:45.826Z,16.35
2023-03-02T02:11:12.946Z,14.48
2023-03-02T02:13:39.644Z,20.13
2023-03-02T02:16:06.769Z,19.00
2023-03-02T02:18:34.874Z,19.35
2023-03-02T02:21:01.569Z,19.90
2023-03-02T02:23:43.166Z,19.93
2023-03-02T02:26:20.591Z,18.92
2023-03-02T02:29:03.176Z,17.52
2023-03-02T02:31:44.753Z,17.85
2023-03-02T02:34:16.550Z,19.83
2023-03-02T02:36:45.753Z,16.63
2023-03-02T02:39:21.394Z,20.52
2023-03-02T02:41:49.710Z,23.33
2023-03-02T02:44:18.278Z,16.25
2023-03-02T02:46:44.948Z,19.77
2023-03-02T02:49:20.777Z,15.93
2023-03-02T02:51:47.241Z,15.27
2023-03-02T02:54:17.547Z,18.42
2023-03-02T02:56:46.663Z,16.83
2023-03-02T02:59:21.709Z,20.42
2023-03-02T03:01:49.551Z,17.85
2023-03-02T03:04:21.115Z,21.55
2023-03-02T03:06:57.157Z,18.73
2023-03-02T03:09:24.509Z,20.00
2023-03-02T03:12:14.053Z,19.23
2023-03-02T03:14:41.346Z,20.35
2023-03-02T03:17:12.833Z,22.15
2023-03-02T03:19:47.150Z,17.80
2023-03-02T03:22:16.401Z,17.38
2023-03-02T03:24:45.465Z,16.70
2023-03-02T03:27:15.296Z,16.88
2023-03-02T03:29:45.462Z,18.95
2023-03-02T03:32:13.599Z,16.70
2023-03-02T03:34:43.106Z,16.23
2023-03-02T03:37:18.566Z,19.08
2023-03-02T03:39:45.511Z,19.08
2023-03-02T03:42:12.368Z,17.65
2023-03-02T03:44:38.968Z,19.05
2023-03-02T03:47:05.781Z,19.67
2023-03-02T03:49:32.509Z,16.42
2023-03-02T03:51:58.998Z,15.82
2023-03-02T03:54:25.708Z,19.08
2023-03-02T03:56:52.200Z,21.38
2023-03-02T03:59:22.201Z,16.92
2023-03-02T04:02:00.035Z,21.33
2023-03-02T04:04:35.007Z,18.88
2023-03-02T04:07:06.602Z,20.33
2023-03-02T04:09:37.723Z,23.55
2023-03-02T04:12:05.817Z,17.25
2023-03-02T04:14:33.119Z,18.50
2023-03-02T04:17:00.586Z,19.20
2023-03-02T04:19:27.695Z,23.15
2023-03-02T04:21:58.397Z,19.92
2023-03-02T04:24:25.283Z,19.73
2023-03-02T04:26:55.234Z,21.23
2023-03-02T04:29:23.241Z,23.70
2023-03-02T04:31:50.821Z,22.65
2023-03-02T04:34:19.119Z,19.15
2023-03-02T04:36:46.059Z,27.20
2023-03-02T04:39:16.468Z,21.80
2023-03-02T04:41:47.208Z,23.50
2023-03-02T04:44:14.775Z,20.05
2023-03-02T04:46:44.436Z,18.48
2023-03-02T04:49:13.315Z,16.52
2023-03-02T04:51:42.642Z,17.63
2023-03-02T04:54:21.135Z,20.95
2023-03-02T04:56:48.589Z,18.48
2023-03-02T04:59:20.704Z,24.63
2023-03-02T05:01:47.604Z,16.55
2023-03-02T05:04:14.771Z,21.10
2023-03-02T05:06:41.386Z,15.82
2023-03-02T05:09:08.213Z,17.50
2023-03-02T05:11:35.015Z,21.45
2023-03-02T05:14:03.795Z,31.42
2023-03-02T05:16:32.882Z,20.63
2023-03-02T05:19:00.980Z,10.90
2023-03-02T05:21:27.490Z,19.85
2023-03-02T05:23:54.066Z,18.20
2023-03-02T05:26:20.503Z,20.42
2023-03-02T05:28:47.172Z,22.00
2023-03-02T05:31:35.298Z,18.90
2023-03-02T05:34:03.116Z,16.63
2023-03-02T05:36:29.689Z,26.40
2023-03-02T05:38:56.170Z,20.58
2023-03-02T05:41:22.803Z,16.48
2023-03-02T05:43:49.303Z,15.27
2023-03-02T05:46:17.301Z,21.60
2023-03-02T05:48:44.085Z,17.92
2023-03-02T05:51:10.592Z,21.20
2023-03-02T05:53:37.093Z,22.80
2023-03-02T05:56:04.092Z,24.13
2023-03-02T05:58:30.689Z,16.73
2023-03-02T06:00:57.102Z,19.73
2023-03-02T06:03:23.623Z,20.85
2023-03-02T06:05:50.661Z,20.17
2023-03-02T06:08:18.377Z,19.70
2023-03-02T06:10:45.751Z,18.65
2023-03-02T06:13:12.370Z,21.50
2023-03-02T06:15:40.458Z,23.13
2023-03-02T06:18:07.053Z,20.83
2023-03-02T06:20:33.540Z,20.25
2023-03-02T06:23:00.016Z,18.65
2023-03-02T06:25:26.759Z,24.77
2023-03-02T06:27:53.780Z,21.38
2023-03-02T06:30:24.131Z,19.85
2023-03-02T06:32:50.793Z,27.75
2023-03-02T06:35:17.831Z,16.60
2023-03-02T06:37:44.595Z,17.48
2023-03-02T06:40:13.426Z,16.75
2023-03-02T06:42:41.711Z,17.92
2023-03-02T06:45:09.421Z,19.52
2023-03-02T06:47:35.933Z,24.45
2023-03-02T06:50:02.500Z,21.67
2023-03-02T06:52:28.987Z,20.58
2023-03-02T06:54:55.883Z,21.02
2023-03-02T06:57:22.572Z,21.45
2023-03-02T06:59:49.155Z,24.92
2023-03-02T07:02:15.645Z,15.43
2023-03-02T07:04:42.129Z,21.73
2023-03-02T07:07:08.618Z,22.83
2023-03-02T07:09:35.212Z,24.10
2023-03-02T07:12:02.065Z,26.02
2023-03-02T07:14:28.608Z,29.63
2023-03-02T07:16:57.461Z,28.02
2023-03-02T07:19:24.429Z,24.85
2023-03-02T07:21:50.872Z,15.23
2023-03-02T07:24:17.476Z,14.23
2023-03-02T07:26:44.228Z,26.17
2023-03-02T07:29:10.760Z,16.05
2023-03-02T07:31:37.181Z,15.27
2023-03-02T07:34:03.897Z,14.52
2023-03-02T07:36:30.747Z,17.60
2023-03-02T07:38:57.650Z,19.97
2023-03-02T07:41:24.310Z,16.10
2023-03-02T07:43:50.842Z,15.82
2023-03-02T07:46:17.536Z,17.03
2023-03-02T07:48:44.015Z,20.92
2023-03-02T07:51:10.662Z,22.87
2023-03-02T07:53:37.456Z,14.33
2023-03-02T07:56:11.332Z,19.47
2023-03-02T07:58:38.135Z,13.63
2023-03-02T08:01:04.840Z,13.90
2023-03-02T08:03:31.584Z,17.77
2023-03-02T08:05:58.393Z,11.47
2023-03-02T08:08:25.172Z,17.27
2023-03-02T08:10:51.723Z,15.63
2023-03-02T08:13:19.777Z,15.17
2023-03-02T08:15:46.297Z,13.70
2023-03-02T08:18:12.884Z,14.10
2023-03-02T08:20:39.555Z,10.90
2023-03-02T08:23:07.065Z,15.37
2023-03-02T08:25:33.981Z,12.27
2023-03-02T08:28:00.422Z,10.80
2023-03-02T08:30:27.016Z,15.13
2023-03-02T08:32:53.708Z,10.10
2023-03-02T08:35:22.100Z,14.60
2023-03-02T08:37:49.132Z,16.37
2023-03-02T08:40:15.806Z,12.27
2023-03-02T08:42:42.405Z,11.93
2023-03-02T08:45:09.461Z,18.13
2023-03-02T08:47:36.104Z,12.50
2023-03-02T08:50:02.533Z,13.30
2023-03-02T08:52:29.245Z,12.37
2023-03-02T08:54:55.762Z,14.50
2023-03-02T08:57:22.454Z,12.73
2023-03-02T08:59:49.003Z,14.33
2023-03-02T09:02:15.588Z,21.27
2023-03-02T09:04:42.050Z,17.07
2023-03-02T09:07:09.655Z,12.77
2023-03-02T09:09:36.355Z,10.17
2023-03-02T09:12:02.895Z,12.23
2023-03-02T09:14:29.603Z,11.20
2023-03-02T09:16:56.383Z,15.40
2023-03-02T09:19:22.973Z,12.77
2023-03-02T09:21:49.984Z,13.50
2023-03-02T09:24:16.678Z,14.23
2023-03-02T09:26:43.250Z,14.07
2023-03-02T09:29:10.095Z,12.20
2023-03-02T09:31:37.717Z,12.80
2023-03-02T09:34:05.025Z,16.93
2023-03-02T09:36:32.794Z,15.20
2023-03-02T09:38:59.327Z,14.30
2023-03-02T09:41:39.075Z,12.43
2023-03-02T09:44:14.634Z,9.53
2023-03-02T09:46:46.839Z,19.50
2023-03-02T09:49:32.089Z,9.23
2023-03-02T09:52:36.844Z,15.73
2023-03-02T09:55:22.498Z,13.00
2023-03-02T09:57:49.303Z,13.10
2023-03-02T10:00:29.259Z,13.00
2023-03-02T10:03:16.660Z,12.53
2023-03-02T10:05:54.328Z,16.13
2023-03-02T10:08:24.550Z,12.13
2023-03-02T10:10:53.987Z,11.00
2023-03-02T10:13:27.013Z,11.03
2023-03-02T10:16:02.456Z,12.83
2023-03-02T10:18:30.532Z,9.20
2023-03-02T10:21:00.977Z,24.43
2023-03-02T10:23:37.820Z,7.10
2023-03-02T10:26:24.938Z,12.30
2023-03-02T10:29:03.396Z,9.07
2023-03-02T10:31:32.269Z,8.87
2023-03-02T10:33:59.884Z,11.50
2023-03-02T10:36:29.182Z,11.73
2023-03-02T10:38:56.812Z,16.73
2023-03-02T10:41:41.356Z,7.70
2023-03-02T10:44:15.607Z,4.43
2023-03-02T10:46:44.107Z,7.73
2023-03-02T10:49:32.148Z,12.33
2023-03-02T10:52:05.896Z,10.40
2023-03-02T10:54:34.476Z,8.33
2023-03-02T10:57:03.329Z,17.47
2023-03-02T10:59:48.017Z,9.30
2023-03-02T11:02:23.498Z,11.30
2023-03-02T11:04:59.010Z,13.73
2023-03-02T11:07:27.973Z,6.20
2023-03-02T11:10:04.244Z,13.47
2023-03-02T11:12:31.683Z,13.00
2023-03-02T11:15:15.036Z,6.90
2023-03-02T11:17:42.277Z,10.07
2023-03-02T11:20:16.719Z,10.13
2023-03-02T11:23:20.762Z,5.97
2023-03-02T11:25:59.065Z,7.00
2023-03-02T11:28:48.435Z,10.87
2023-03-02T11:31:26.527Z,14.83
2023-03-02T11:34:17.664Z,8.80
2023-03-02T11:37:02.366Z,11.77
2023-03-02T11:39:46.563Z,8.30
2023-03-02T11:42:35.746Z,11.27
2023-03-02T11:45:16.461Z,8.00
2023-03-02T11:47:54.292Z,10.33
2023-03-02T11:50:25.643Z,11.40
2023-03-02T11:52:55.583Z,6.47
2023-03-02T11:55:23.983Z,10.40
2023-03-02T11:57:55.701Z,6.80
2023-03-02T12:00:32.233Z,10.30
2023-03-02T12:03:03.001Z,7.90
2023-03-02T12:05:32.123Z,12.13
2023-03-02T12:08:03.032Z,6.43
2023-03-02T12:10:42.483Z,7.90
2023-03-02T12:13:24.626Z,13.67
2023-03-02T12:15:51.624Z,10.30
2023-03-02T12:18:21.097Z,12.33
2023-03-02T12:20:59.843Z,7.30
2023-03-02T12:23:26.670Z,7.07
2023-03-02T12:26:25.524Z,11.13
2023-03-02T12:29:03.106Z,15.97
2023-03-02T12:31:59.125Z,8.80
2023-03-02T12:34:32.917Z,10.23
2023-03-02T12:37:16.275Z,9.93
2023-03-02T12:40:39.467Z,9.03
2023-03-02T12:43:34.068Z,8.33
2023-03-02T12:46:29.741Z,11.50
2023-03-02T12:49:17.056Z,7.40
2023-03-02T12:51:55.457Z,8.70
2023-03-02T12:54:27.404Z,7.53
2023-03-02T12:57:14.284Z,7.10
2023-03-02T12:59:40.783Z,7.23
2023-03-02T13:02:14.562Z,6.57
2023-03-02T13:04:41.145Z,10.40
2023-03-02T13:07:16.103Z,5.47
2023-03-02T13:09:55.656Z,5.23
2023-03-02T13:12:23.050Z,6.03
2023-03-02T13:14:54.860Z,7.10
2023-03-02T13:17:30.877Z,10.37
2023-03-02T13:20:01.896Z,8.47
2023-03-02T13:22:29.196Z,10.43
2023-03-02T13:25:02.135Z,8.20
2023-03-02T13:27:29.527Z,11.77
2023-03-02T13:29:56.552Z,11.33
2023-03-02T13:32:34.432Z,10.37
2023-03-02T13:35:02.820Z,5.03
2023-03-02T13:37:43.560Z,8.90
2023-03-02T13:40:22.343Z,10.17
2023-03-02T13:42:48.830Z,10.73
2023-03-02T13:45:24.832Z,10.40
2023-03-02T13:47:51.892Z,12.70
2023-03-02T13:50:27.410Z,14.60
2023-03-02T13:53:02.479Z,12.57
2023-03-02T13:55:29.463Z,14.63
2023-03-02T13:57:56.221Z,9.97
2023-03-02T14:00:27.519Z,20.87
2023-03-02T14:02:57.027Z,9.50
2023-03-02T14:05:27.007Z,12.67
2023-03-02T14:07:53.545Z,11.03
2023-03-02T14:10:20.517Z,7.73
2023-03-02T14:12:54.190Z,9.67
2023-03-02T14:15:20.810Z,10.90
2023-03-02T14:17:49.138Z,12.57
2023-03-02T14:20:19.296Z,14.90
2023-03-02T14:22:48.914Z,11.37
2023-03-02T14:25:15.473Z,11.57
2023-03-02T14:27:42.662Z,11.60
2023-03-02T14:30:18.919Z,10.37
2023-03-02T14:32:45.463Z,8.50
2023-03-02T14:35:13.364Z,11.40
2023-03-02T14:37:45.830Z,9.23
2023-03-02T14:40:23.414Z,9.10
2023-03-02T14:42:51.726Z,11.70
2023-03-02T14:45:18.485Z,11.97
2023-03-02T14:47:45.088Z,9.37
2023-03-02T14:50:17.310Z,11.80
2023-03-02T14:52:47.830Z,11.30
2023-03-02T14:55:25.805Z,9.10
2023-03-02T14:58:14.577Z,10.50
2023-03-02T15:00:42.504Z,10.70
2023-03-02T15:03:14.126Z,10.50
2023-03-02T15:05:44.217Z,11.10
2023-03-02T15:08:15.425Z,7.67
2023-03-02T15:10:42.822Z,9.03
2023-03-02T15:13:10.342Z,12.57
2023-03-02T15:15:38.137Z,10.27
2023-03-02T15:18:04.630Z,10.97
2023-03-02T15:20:31.138Z,9.17
2023-03-02T15:22:57.767Z,10.87
2023-03-02T15:25:25.864Z,9.33
2023-03-02T15:27:53.155Z,10.17
2023-03-02T15:30:19.820Z,12.70
2023-03-02T15:32:46.301Z,11.53
2023-03-02T15:35:12.720Z,8.93
2023-03-02T15:37:39.560Z,10.70
2023-03-02T15:40:06.696Z,14.07
2023-03-02T15:42:33.182Z,12.63
2023-03-02T15:44:59.659Z,9.80
2023-03-02T15:47:26.182Z,19.10
2023-03-02T15:49:52.697Z,9.60
2023-03-02T15:52:20.849Z,10.23
2023-03-02T15:54:47.416Z,9.20
2023-03-02T15:57:13.886Z,12.07
2023-03-02T15:59:40.404Z,13.00
2023-03-02T16:02:06.894Z,8.27
2023-03-02T16:04:33.615Z,17.30
2023-03-02T16:07:00.064Z,11.73
2023-03-02T16:09:28.793Z,10.20
2023-03-02T16:11:56.379Z,9.47
2023-03-02T16:14:23.181Z,8.10
2023-03-02T16:16:49.827Z,11.60
2023-03-02T16:19:19.236Z,11.43
2023-03-02T16:21:46.650Z,11.53
2023-03-02T16:24:13.917Z,12.07
2023-03-02T16:26:40.627Z,11.27
2023-03-02T16:29:10.024Z,14.10
2023-03-02T16:31:45.982Z,8.53
2023-03-02T16:34:13.027Z,14.80
2023-03-02T16:36:40.672Z,11.60
2023-03-02T16:39:08.825Z,14.50
2023-03-02T16:41:35.911Z,14.37
2023-03-02T16:44:02.525Z,11.27
2023-03-02T16:46:32.997Z,15.77
2023-03-02T16:48:59.594Z,12.00
2023-03-02T16:51:26.182Z,13.90
2023-03-02T16:53:53.440Z,11.27
2023-03-02T16:56:20.124Z,10.57
2023-03-02T16:58:46.775Z,13.97
2023-03-02T17:01:17.056Z,15.50
2023-03-02T17:03:44.417Z,12.00
2023-03-02T17:06:13.330Z,13.07
2023-03-02T17:08:41.052Z,12.57
2023-03-02T17:11:07.926Z,14.70
2023-03-02T17:13:36.254Z,14.37
2023-03-02T17:16:03.016Z,12.77
2023-03-02T17:18:30.760Z,10.73
2023-03-02T17:20:58.618Z,15.33
2023-03-02T17:23:27.135Z,16.47
2023-03-02T17:25:54.412Z,14.90
2023-03-02T17:28:21.155Z,16.13
2023-03-02T17:30:47.957Z,14.27
2023-03-02T17:33:14.639Z,13.93
2023-03-02T17:35:42.451Z,16.17
2023-03-02T17:38:09.141Z,11.63
2023-03-02T17:40:35.856Z,15.80
2023-03-02T17:43:02.579Z,18.03
2023-03-02T17:45:29.751Z,14.00
2023-03-02T17:47:57.831Z,13.80
2023-03-02T17:50:24.967Z,14.17
2023-03-02T17:52:51.746Z,12.50
2023-03-02T17:55:18.346Z,16.90
2023-03-02T17:57:44.813Z,12.77
2023-03-02T18:00:15.363Z,13.70
2023-03-02T18:02:41.834Z,14.97
2023-03-02T18:05:10.087Z,16.50
2023-03-02T18:07:37.102Z,13.00
2023-03-02T18:10:05.123Z,14.97
2023-03-02T18:12:31.583Z,12.90
2023-03-02T18:14:58.047Z,13.40
2023-03-02T18:17:24.554Z,15.17
2023-03-02T18:19:51.000Z,14.00
2023-03-02T18:22:17.457Z,18.00
2023-03-02T18:24:44.007Z,14.33
2023-03-02T18:27:10.517Z,14.73
2023-03-02T18:29:36.958Z,15.40
2023-03-02T18:32:03.695Z,14.83
2023-03-02T18:34:30.334Z,13.13
2023-03-02T18:36:56.809Z,14.30
2023-03-02T18:39:23.228Z,14.30
2023-03-02T18:41:49.717Z,18.33
2023-03-02T18:44:16.202Z,17.40
2023-03-02T18:46:42.726Z,17.70
2023-03-02T18:49:09.256Z,15.80
2023-03-02T18:51:35.722Z,15.30
2023-03-02T18:54:02.199Z,16.70
2023-03-02T18:56:28.672Z,14.00
2023-03-02T18:58:55.161Z,20.20
2023-03-02T19:01:22.203Z,14.57
2023-03-02T19:03:49.052Z,15.80
2023-03-02T19:06:16.493Z,18.03
2023-03-02T19:08:43.113Z,15.83
2023-03-02T19:11:09.584Z,14.27
2023-03-02T19:13:36.083Z,13.67
2023-03-02T19:16:02.646Z,17.33
2023-03-02T19:18:29.558Z,20.23
2023-03-02T19:20:57.412Z,18.50
2023-03-02T19:23:24.155Z,15.40
2023-03-02T19:25:50.785Z,17.40
2023-03-02T19:28:17.314Z,15.63
2023-03-02T19:30:43.932Z,14.70
2023-03-02T19:33:10.457Z,16.17
2023-03-02T19:35:40.313Z,14.93
2023-03-02T19:38:07.696Z,15.80
2023-03-02T19:40:34.566Z,18.03
2023-03-02T19:43:01.575Z,19.77
2023-03-02T19:45:30.207Z,18.03
2023-03-02T19:47:58.063Z,15.67
2023-03-02T19:50:25.698Z,15.50
2023-03-02T19:52:54.674Z,15.83
2023-03-02T19:55:22.229Z,19.27
2023-03-02T19:57:56.459Z,17.67
2023-03-02T20:00:23.856Z,25.73
2023-03-02T20:02:50.333Z,17.97
2023-03-02T20:05:16.815Z,15.40
2023-03-02T20:07:43.503Z,14.83
2023-03-02T20:10:10.667Z,20.10
2023-03-02T20:12:37.171Z,19.80
2023-03-02T20:15:05.398Z,12.97
2023-03-02T20:17:31.889Z,20.60
2023-03-02T20:19:58.582Z,17.33
2023-03-02T20:22:25.868Z,17.77
2023-03-02T20:24:52.347Z,18.00
2023-03-02T20:27:18.871Z,15.40
2023-03-02T20:29:45.444Z,20.70
2023-03-02T20:32:12.911Z,20.37
2023-03-02T20:34:41.900Z,18.20
2023-03-02T20:37:08.649Z,16.80
2023-03-02T20:39:38.102Z,18.13
2023-03-02T20:42:05.734Z,17.13
2023-03-02T20:44:32.419Z,21.33
2023-03-02T20:47:00.964Z,23.40
2023-03-02T20:49:29.430Z,25.70
2023-03-02T20:51:58.050Z,17.97
2023-03-02T20:54:29.320Z,18.10
2023-03-02T20:56:55.818Z,31.23
2023-03-02T20:59:22.886Z,18.10
2023-03-02T21:01:50.054Z,18.13
2023-03-02T21:04:16.987Z,21.03
2023-03-02T21:06:44.532Z,24.97
2023-03-02T21:09:11.039Z,19.37
2023-03-02T21:11:38.203Z,19.23
2023-03-02T21:14:05.004Z,19.83
2023-03-02T21:16:37.009Z,19.83
2023-03-02T21:19:08.635Z,24.07
2023-03-02T21:21:41.369Z,21.10
2023-03-02T21:24:12.399Z,20.70
2023-03-02T21:26:39.087Z,26.03
2023-03-02T21:29:05.948Z,24.97
2023-03-02T21:31:32.882Z,19.57
2023-03-02T21:34:00.594Z,20.73
2023-03-02T21:36:27.294Z,19.67
2023-03-02T21:38:53.909Z,26.00
2023-03-02T21:41:20.809Z,20.10
2023-03-02T21:43:48.353Z,19.40
2023-03-02T21:46:17.368Z,22.60
2023-03-02T21:48:44.471Z,29.70
2023-03-02T21:51:12.205Z,21.43
2023-03-02T21:53:38.889Z,20.27
2023-03-02T21:56:05.913Z,20.40
2023-03-02T21:58:32.457Z,20.43
2023-03-02T22:00:58.975Z,20.77
2023-03-02T22:03:25.555Z,25.20
2023-03-02T22:05:52.049Z,19.80
2023-03-02T22:08:20.100Z,22.07
2023-03-02T22:10:48.729Z,26.57
2023-03-02T22:13:31.070Z,28.83
2023-03-02T22:16:18.002Z,23.40
2023-03-02T22:18:45.837Z,25.57
2023-03-02T22:21:38.829Z,20.33
2023-03-02T22:24:08.201Z,25.57
2023-03-02T22:26:40.656Z,24.40
2023-03-02T22:29:21.604Z,23.93
2023-03-02T22:31:49.733Z,21.73
2023-03-02T22:34:20.618Z,17.60
2023-03-02T22:36:47.273Z,21.57
2023-03-02T22:39:33.964Z,23.27
2023-03-02T22:42:28.032Z,20.73
2023-03-02T22:45:14.657Z,22.47
2023-03-02T22:47:45.351Z,20.33
2023-03-02T22:50:20.976Z,25.20
2023-03-02T22:52:47.460Z,20.15
2023-03-02T22:55:39.823Z,15.93
2023-03-02T22:58:24.927Z,20.07
2023-03-02T23:00:51.503Z,21.63
2023-03-02T23:03:24.725Z,27.70
2023-03-02T23:05:52.816Z,28.40
2023-03-02T23:08:27.760Z,21.48
2023-03-02T23:10:57.716Z,17.93
2023-03-02T23:13:39.822Z,19.03
2023-03-02T23:16:34.315Z,20.45
2023-03-02T23:19:01.750Z,21.53
2023-03-02T23:21:39.768Z,20.00
2023-03-02T23:24:07.558Z,18.08
2023-03-02T23:26:34.637Z,20.40
2023-03-02T23:29:01.117Z,18.90
2023-03-02T23:31:27.667Z,18.77
2023-03-02T23:33:54.394Z,24.73
2023-03-02T23:36:21.238Z,21.47
2023-03-02T23:38:48.680Z,22.52
2023-03-02T23:41:15.243Z,20.85
2023-03-02T23:43:41.699Z,20.77
2023-03-02T23:46:08.220Z,24.35
2023-03-02T23:48:34.666Z,20.73
2023-03-02T23:51:01.386Z,19.80
2023-03-02T23:53:27.924Z,20.90
2023-03-02T23:55:54.914Z,20.65
2023-03-02T23:58:22.204Z,24.70
